Golden Valley, Arizona
Current Conditions -  °F | °C
As of 12:51 AM on Friday 31 Oct 2014 (Local Time) from KIGM Reporting Station
Clear Clear  
Wind Chill: 18°   Ceiling: Unl
Heat Index: 18°   Visibility: NA
Dew Point:   Wind: 0mph
Humidity: 31%   Direction: NA
Pressure: 30.04"   Gusts: NA
Location:  35.22°N, 114.22°W
Report Text: KIGM 310751Z AUTO 00000KT CLR 18/01 A3004 RMK AO2 SLP105 T01830006
Loading
Personal Weather Stations






























Interactive Weather Map
Tropical Storm Tracking
New forecast layout! Learn more

10-Day Weather Forecast

Advertisements
Track Severe Weather on mobile